Time;durP1;ratioP1;P1;durP2;ratioP2;P2;SDS_P1;SDS_P2;PMS_P1;PMS_P2;Temp;Humidity;BMP_temperature;BMP_pressure;BME280_temperature;BME280_humidity;BME280_pressure;Samples;Min_cycle;Max_cycle;Signal;HPM_P1;HPM_P2
2019/06/13 09:15:46;;;;;;;1.7;0.9;;;;;;;28.74;35.75391;935.7728;;;;
2019/06/13 09:18:21;;;;;;;1.6;0.8;;;;;;;28.46;36.13574;935.7765;;;;
2019/06/13 09:20:46;;;;;;;1.8;0.8;;;;;;;27.96;37.24707;935.6948;;;;
2019/06/13 09:23:19;;;;;;;1.5;0.7;;;;;;;27.53;39.09863;935.7056;;;;
2019/06/13 09:25:56;;;;;;;1.1;0.7;;;;;;;27.47;39.27148;935.6635;;;;
2019/06/13 09:28:26;;;;;;;2.1;0.8;;;;;;;27.29;38.59277;935.7095;;;;
2019/06/13 09:30:54;;;;;;;2;0.7;;;;;;;26.99;40.79395;935.7594;;;;
2019/06/13 09:33:20;;;;;;;3.8;0.8;;;;;;;26.61;41.36328;935.6948;;;;
2019/06/13 09:35:58;;;;;;;2.5;0.8;;;;;;;26.8;40.88477;935.6585;;;;
2019/06/13 09:38:30;;;;;;;3;0.8;;;;;;;26.69;39.21582;935.5818;;;;
2019/06/13 09:40:58;;;;;;;2;0.9;;;;;;;26.48;41.19824;935.4756;;;;
2019/06/13 09:43:20;;;;;;;3.7;0.9;;;;;;;26.45;41.53906;935.5772;;;;
2019/06/13 09:46:00;;;;;;;2.2;0.9;;;;;;;26.28;40.41113;935.5256;;;;
2019/06/13 09:48:27;;;;;;;3.5;1;;;;;;;26.25;42.13477;935.4966;;;;
2019/06/13 09:50:48;;;;;;;3;1.1;;;;;;;26.19;42.61621;935.4958;;;;
2019/06/13 09:53:14;;;;;;;2.3;0.9;;;;;;;26.13;44.19434;935.4849;;;;
2019/06/13 09:55:41;;;;;;;3.5;0.9;;;;;;;25.75;45.29102;935.5588;;;;
2019/06/13 09:58:14;;;;;;;7.4;1.1;;;;;;;25.74;44.88867;935.5027;;;;
2019/06/13 10:00:41;;;;;;;2.4;1.1;;;;;;;25.7;45.86621;935.5662;;;;
2019/06/13 10:03:09;;;;;;;5;1;;;;;;;25.66;46.85352;935.5602;;;;
2019/06/13 10:05:44;;;;;;;5.5;1.1;;;;;;;25.36;45.9248;935.5327;;;;
2019/06/13 10:08:08;;;;;;;3.2;1;;;;;;;;;;;;;
2019/06/13 10:10:35;;;;;;;2.1;0.9;;;;;;;;;;;;;
2019/06/13 10:12:59;;;;;;;2.6;0.9;;;;;;;;;;;;;
2019/06/13 10:15:41;;;;;;;3.5;1.3;;;;;;;;;;;;;
2019/06/13 10:17:59;;;;;;;5.3;1.1;;;;;;;;;;;;;
2019/06/13 10:20:21;;;;;;;3.1;0.9;;;;;;;;;;;;;
2019/06/13 10:22:45;;;;;;;3.8;0.9;;;;;;;;;;;;;
2019/06/13 10:25:11;;;;;;;5.5;0.9;;;;;;;;;;;;;
2019/06/13 10:27:36;;;;;;;3.3;1;;;;;;;;;;;;;
2019/06/13 10:29:59;;;;;;;5.4;1.2;;;;;;;;;;;;;
2019/06/13 10:32:25;;;;;;;3.8;0.9;;;;;;;;;;;;;
2019/06/13 10:34:54;;;;;;;2;1;;;;;;;;;;;;;
2019/06/13 10:37:21;;;;;;;4.7;1;;;;;;;;;;;;;
2019/06/13 10:39:49;;;;;;;5.2;1.1;;;;;;;;;;;;;
2019/06/13 10:42:12;;;;;;;2.8;1;;;;;;;;;;;;;
2019/06/13 10:44:37;;;;;;;10.1;1.2;;;;;;;;;;;;;
2019/06/13 10:47:05;;;;;;;3.6;1;;;;;;;;;;;;;
2019/06/13 10:49:31;;;;;;;5;1;;;;;;;;;;;;;
2019/06/13 10:51:56;;;;;;;2.8;0.9;;;;;;;;;;;;;
2019/06/13 10:54:20;;;;;;;5.2;1.1;;;;;;;;;;;;;
2019/06/13 10:56:52;;;;;;;2.7;1;;;;;;;;;;;;;
2019/06/13 10:59:11;;;;;;;4;1;;;;;;;;;;;;;
2019/06/13 11:01:39;;;;;;;5.3;1;;;;;;;;;;;;;
2019/06/13 11:04:05;;;;;;;2.2;0.9;;;;;;;;;;;;;
2019/06/13 11:06:30;;;;;;;4.5;1.1;;;;;;;;;;;;;
2019/06/13 11:08:56;;;;;;;2.8;0.9;;;;;;;;;;;;;
2019/06/13 11:11:25;;;;;;;2.3;0.9;;;;;;;;;;;;;
2019/06/13 11:13:49;;;;;;;3.6;0.9;;;;;;;;;;;;;
2019/06/13 11:16:16;;;;;;;4.6;1.1;;;;;;;;;;;;;
2019/06/13 11:18:44;;;;;;;2.7;1.2;;;;;;;;;;;;;
2019/06/13 11:21:07;;;;;;;2.3;1;;;;;;;;;;;;;
2019/06/13 11:23:33;;;;;;;3.8;1.1;;;;;;;;;;;;;
2019/06/13 11:26:01;;;;;;;4.6;1;;;;;;;;;;;;;
2019/06/13 11:28:28;;;;;;;2.4;1.1;;;;;;;;;;;;;
2019/06/13 11:30:48;;;;;;;2.9;1;;;;;;;;;;;;;
2019/06/13 11:33:14;;;;;;;2.4;1.2;;;;;;;;;;;;;
2019/06/13 11:35:46;;;;;;;5;1.2;;;;;;;;;;;;;
2019/06/13 11:38:07;;;;;;;3.8;1;;;;;;;;;;;;;
2019/06/13 11:40:29;;;;;;;6.1;1.1;;;;;;;;;;;;;
2019/06/13 11:43:01;;;;;;;4.4;1.1;;;;;;;;;;;;;
2019/06/13 11:45:37;;;;;;;3.5;1.1;;;;;;;;;;;;;
2019/06/13 11:47:57;;;;;;;6;1.1;;;;;;;;;;;;;
2019/06/13 11:50:20;;;;;;;4.9;1.2;;;;;;;;;;;;;
2019/06/13 11:52:46;;;;;;;4.3;1.2;;;;;;;;;;;;;
2019/06/13 11:55:17;;;;;;;4;1.1;;;;;;;;;;;;;
2019/06/13 11:57:37;;;;;;;4.2;1.2;;;;;;;;;;;;;
2019/06/13 12:00:17;;;;;;;3.8;1;;;;;;;;;;;;;
2019/06/13 12:02:37;;;;;;;4;1.3;;;;;;;;;;;;;
2019/06/13 12:05:02;;;;;;;7.1;1;;;;;;;;;;;;;
2019/06/13 12:07:25;;;;;;;3.8;1.1;;;;;;;;;;;;;
2019/06/13 12:09:56;;;;;;;4.8;1.1;;;;;;;;;;;;;
2019/06/13 12:12:21;;;;;;;4.3;1.2;;;;;;;;;;;;;
2019/06/13 12:14:45;;;;;;;3.8;1;;;;;;;;;;;;;
2019/06/13 12:17:12;;;;;;;4.2;1.1;;;;;;;;;;;;;
2019/06/13 12:19:37;;;;;;;8.1;1.7;;;;;;;;;;;;;
2019/06/13 12:22:06;;;;;;;3.9;1.1;;;;;;;;;;;;;
2019/06/13 12:24:31;;;;;;;4.6;1.3;;;;;;;;;;;;;
2019/06/13 12:27:00;;;;;;;3;1.1;;;;;;;;;;;;;
2019/06/13 12:29:30;;;;;;;4;1;;;;;;;;;;;;;
2019/06/13 12:31:56;;;;;;;4.6;1.3;;;;;;;;;;;;;
2019/06/13 12:34:21;;;;;;;2.1;1.1;;;;;;;;;;;;;
2019/06/13 12:36:46;;;;;;;3.2;1.1;;;;;;;;;;;;;
2019/06/13 12:39:14;;;;;;;5.1;1.2;;;;;;;;;;;;;
2019/06/13 12:41:41;;;;;;;4.6;1.4;;;;;;;;;;;;;
2019/06/13 12:44:04;;;;;;;7.8;1.4;;;;;;;;;;;;;
2019/06/13 12:46:31;;;;;;;4.4;1.3;;;;;;;;;;;;;
2019/06/13 12:51:53;;;;;;;5.5;1.3;;;;;;;;;;;;;
2019/06/13 12:54:19;;;;;;;5.1;1.3;;;;;;;;;;;;;
2019/06/13 12:56:44;;;;;;;5.2;1.6;;;;;;;;;;;;;
2019/06/13 12:59:12;;;;;;;5.2;1.2;;;;;;;;;;;;;
2019/06/13 13:01:34;;;;;;;5.9;1.4;;;;;;;;;;;;;
2019/06/13 13:04:00;;;;;;;4;1.2;;;;;;;;;;;;;
2019/06/13 13:09:55;;;;;;;6.7;1.4;;;;;;;;;;;;;
2019/06/13 13:12:15;;;;;;;2.6;1.1;;;;;;;;;;;;;
2019/06/13 13:14:42;;;;;;;4.9;1.1;;;;;;;;;;;;;
2019/06/13 13:17:05;;;;;;;5.9;1.5;;;;;;;;;;;;;
2019/06/13 13:19:29;;;;;;;4.1;1.3;;;;;;;;;;;;;
2019/06/13 13:21:58;;;;;;;8.7;1.7;;;;;;;;;;;;;
2019/06/13 13:24:21;;;;;;;3.5;1.4;;;;;;;;;;;;;
2019/06/13 13:29:19;;;;;;;7.4;1.4;;;;;;;;;;;;;
2019/06/13 13:31:48;;;;;;;8.8;1.3;;;;;;;;;;;;;
2019/06/13 13:34:15;;;;;;;3.8;1.3;;;;;;;;;;;;;
2019/06/13 13:36:43;;;;;;;5.6;1.5;;;;;;;;;;;;;
2019/06/13 13:39:09;;;;;;;4.7;1.4;;;;;;;;;;;;;
2019/06/13 13:41:40;;;;;;;3.6;1.3;;;;;;;;;;;;;
2019/06/13 13:44:08;;;;;;;7.2;1.6;;;;;;;;;;;;;
2019/06/13 13:46:36;;;;;;;3.8;1.3;;;;;;;;;;;;;
2019/06/13 13:49:02;;;;;;;2.9;1.3;;;;;;;;;;;;;
2019/06/13 13:51:29;;;;;;;4.1;1.2;;;;;;;;;;;;;
2019/06/13 13:53:52;;;;;;;4.7;1.3;;;;;;;;;;;;;
2019/06/13 13:56:19;;;;;;;3.9;1.4;;;;;;;;;;;;;
2019/06/13 13:58:43;;;;;;;4.7;1.3;;;;;;;;;;;;;
2019/06/13 14:01:10;;;;;;;4.5;1.9;;;;;;;;;;;;;
2019/06/13 14:03:38;;;;;;;2.6;1.4;;;;;;;;;;;;;
2019/06/13 14:06:02;;;;;;;4.7;1.4;;;;;;;;;;;;;
2019/06/13 14:08:32;;;;;;;3.5;1.4;;;;;;;;;;;;;
2019/06/13 14:10:54;;;;;;;4.8;1.3;;;;;;;;;;;;;
2019/06/13 14:18:09;;;;;;;4.4;1.4;;;;;;;;;;;;;
2019/06/13 14:20:56;;;;;;;3.3;1.2;;;;;;;;;;;;;
2019/06/13 14:23:16;;;;;;;4.5;1.3;;;;;;;;;;;;;
2019/06/13 14:25:41;;;;;;;6;1.5;;;;;;;;;;;;;
2019/06/13 14:28:05;;;;;;;4.6;1.5;;;;;;;;;;;;;
2019/06/13 14:30:36;;;;;;;4.9;1.4;;;;;;;;;;;;;
2019/06/13 14:32:58;;;;;;;5.7;1.4;;;;;;;;;;;;;
2019/06/13 14:35:23;;;;;;;5.9;1.5;;;;;;;;;;;;;
2019/06/13 14:37:50;;;;;;;7.4;1.5;;;;;;;;;;;;;
2019/06/13 14:45:40;;;;;;;4.8;1.7;;;;;;;;;;;;;
2019/06/13 14:48:06;;;;;;;5.9;1.5;;;;;;;;;;;;;
2019/06/13 14:50:34;;;;;;;3.3;1.4;;;;;;;;;;;;;
2019/06/13 14:53:02;;;;;;;3.8;1.4;;;;;;;;;;;;;
2019/06/13 14:55:26;;;;;;;3.4;1.4;;;;;;;;;;;;;
2019/06/13 14:57:54;;;;;;;6.2;1.4;;;;;;;;;;;;;
2019/06/13 15:00:16;;;;;;;3.3;1.5;;;;;;;;;;;;;
2019/06/13 15:02:42;;;;;;;4.6;1.5;;;;;;;;;;;;;
2019/06/13 15:05:08;;;;;;;6.2;1.5;;;;;;;;;;;;;
2019/06/13 15:07:36;;;;;;;4;1.6;;;;;;;;;;;;;
2019/06/13 15:09:58;;;;;;;2.9;1.5;;;;;;;;;;;;;
2019/06/13 15:12:25;;;;;;;4.9;1.7;;;;;;;;;;;;;
2019/06/13 15:14:54;;;;;;;3.3;1.4;;;;;;;;;;;;;
2019/06/13 15:17:24;;;;;;;3;1.4;;;;;;;;;;;;;
2019/06/13 15:19:43;;;;;;;6;1.6;;;;;;;;;;;;;
2019/06/13 15:22:09;;;;;;;4.1;1.6;;;;;;;;;;;;;
2019/06/13 15:24:33;;;;;;;4.4;1.4;;;;;;;;;;;;;
2019/06/13 15:26:57;;;;;;;5.4;1.7;;;;;;;;;;;;;
2019/06/13 15:29:24;;;;;;;3.3;1.4;;;;;;;;;;;;;
2019/06/13 15:31:50;;;;;;;3.9;1.5;;;;;;;;;;;;;
2019/06/13 15:34:15;;;;;;;3.8;1.5;;;;;;;;;;;;;
2019/06/13 15:36:40;;;;;;;6.2;1.7;;;;;;;;;;;;;
2019/06/13 15:41:33;;;;;;;3.1;1.6;;;;;;;;;;;;;
2019/06/13 15:43:58;;;;;;;3.3;1.5;;;;;;;;;;;;;
2019/06/13 15:46:26;;;;;;;5.2;1.6;;;;;;;;;;;;;
2019/06/13 15:48:49;;;;;;;5.6;1.8;;;;;;;;;;;;;
2019/06/13 15:51:15;;;;;;;4.8;1.6;;;;;;;;;;;;;
2019/06/13 15:53:40;;;;;;;4.3;1.7;;;;;;;;;;;;;
2019/06/13 16:01:24;;;;;;;4.7;1.8;;;;;;;;;;;;;
2019/06/13 16:03:49;;;;;;;5.4;1.7;;;;;;;;;;;;;
2019/06/13 16:06:14;;;;;;;5.4;1.9;;;;;;;;;;;;;
2019/06/13 16:08:44;;;;;;;4.2;1.9;;;;;;;;;;;;;
2019/06/13 16:11:10;;;;;;;6.4;1.6;;;;;;;;;;;;;
2019/06/13 16:13:37;;;;;;;6.6;1.7;;;;;;;;;;;;;
2019/06/13 16:16:01;;;;;;;4;1.8;;;;;;;;;;;;;
2019/06/13 16:18:27;;;;;;;6.1;1.9;;;;;;;;;;;;;
2019/06/13 16:20:59;;;;;;;3.2;1.6;;;;;;;;;;;;;
2019/06/13 16:23:18;;;;;;;4.2;1.7;;;;;;;;;;;;;
2019/06/13 16:25:44;;;;;;;5.2;1.6;;;;;;;;;;;;;
2019/06/13 16:28:09;;;;;;;6.2;1.7;;;;;;;;;;;;;
2019/06/13 16:30:35;;;;;;;5.9;1.8;;;;;;;;;;;;;
2019/06/13 16:33:01;;;;;;;4;1.5;;;;;;;;;;;;;
2019/06/13 16:35:25;;;;;;;6.4;1.7;;;;;;;;;;;;;
2019/06/13 16:37:53;;;;;;;3.9;1.6;;;;;;;;;;;;;
2019/06/13 16:40:18;;;;;;;4.9;1.8;;;;;;;;;;;;;
2019/06/13 16:42:41;;;;;;;4.9;1.7;;;;;;;;;;;;;
2019/06/13 16:45:14;;;;;;;3.8;1.5;;;;;;;;;;;;;
2019/06/13 16:47:35;;;;;;;4.1;1.8;;;;;;;;;;;;;
2019/06/13 16:50:01;;;;;;;4.7;1.8;;;;;;;;;;;;;
2019/06/13 16:52:31;;;;;;;6.2;1.7;;;;;;;;;;;;;
2019/06/13 16:54:59;;;;;;;4.5;1.6;;;;;;;;;;;;;
2019/06/13 16:57:25;;;;;;;5.6;1.7;;;;;;;;;;;;;
2019/06/13 16:59:50;;;;;;;3.7;1.7;;;;;;;;;;;;;
2019/06/13 17:02:14;;;;;;;8.3;1.9;;;;;;;;;;;;;
2019/06/13 17:04:49;;;;;;;3.7;1.5;;;;;;;;;;;;;
2019/06/13 17:07:11;;;;;;;5.7;1.7;;;;;;;;;;;;;
2019/06/13 17:09:39;;;;;;;4.3;1.8;;;;;;;;;;;;;
2019/06/13 17:12:05;;;;;;;8.2;1.8;;;;;;;;;;;;;
2019/06/13 17:14:30;;;;;;;9.7;2;;;;;;;;;;;;;
2019/06/13 17:17:02;;;;;;;7.4;1.6;;;;;;;;;;;;;
2019/06/13 17:19:22;;;;;;;5.1;2;;;;;;;;;;;;;
2019/06/13 17:21:49;;;;;;;3.2;1.9;;;;;;;;;;;;;
2019/06/13 17:24:16;;;;;;;5.6;2;;;;;;;;;;;;;
2019/06/13 17:26:40;;;;;;;5.9;1.8;;;;;;;;;;;;;
2019/06/13 17:29:06;;;;;;;18.1;2.2;;;;;;;;;;;;;
2019/06/13 17:31:30;;;;;;;6.4;1.8;;;;;;;;;;;;;
2019/06/13 17:33:57;;;;;;;9.2;1.7;;;;;;;;;;;;;
2019/06/13 17:36:23;;;;;;;5.4;1.9;;;;;;;;;;;;;
2019/06/13 17:38:55;;;;;;;5.6;1.8;;;;;;;;;;;;;
2019/06/13 17:41:24;;;;;;;6.2;1.7;;;;;;;;;;;;;
2019/06/13 17:43:49;;;;;;;6.1;2;;;;;;;;;;;;;
2019/06/13 17:46:14;;;;;;;5.9;1.8;;;;;;;;;;;;;
2019/06/13 17:48:42;;;;;;;6;1.9;;;;;;;;;;;;;
2019/06/13 17:51:05;;;;;;;4.8;1.9;;;;;;;;;;;;;
2019/06/13 17:53:33;;;;;;;3.5;1.8;;;;;;;;;;;;;
2019/06/13 17:55:56;;;;;;;3.8;1.7;;;;;;;;;;;;;
2019/06/13 17:58:25;;;;;;;3.8;1.8;;;;;;;;;;;;;
2019/06/13 18:00:50;;;;;;;7.3;2;;;;;;;;;;;;;
2019/06/13 18:03:18;;;;;;;5.8;1.8;;;;;;;;;;;;;
2019/06/13 18:05:43;;;;;;;7.5;1.8;;;;;;;;;;;;;
2019/06/13 18:08:07;;;;;;;2.7;1.7;;;;;;;;;;;;;
2019/06/13 18:10:37;;;;;;;2.3;1.6;;;;;;;;;;;;;
2019/06/13 18:13:01;;;;;;;4.1;1.9;;;;;;;;;;;;;
2019/06/13 18:15:29;;;;;;;5.5;1.8;;;;;;;;;;;;;
2019/06/13 18:17:59;;;;;;;6;1.9;;;;;;;;;;;;;
2019/06/13 18:20:19;;;;;;;4.4;1.9;;;;;;;;;;;;;
2019/06/13 18:22:45;;;;;;;5.1;1.9;;;;;;;;;;;;;
2019/06/13 18:25:09;;;;;;;4.3;1.7;;;;;;;;;;;;;
2019/06/13 18:27:39;;;;;;;4.5;1.8;;;;;;;;;;;;;
2019/06/13 18:30:08;;;;;;;4.1;1.9;;;;;;;;;;;;;
2019/06/13 18:32:32;;;;;;;5.2;1.9;;;;;;;;;;;;;
2019/06/13 18:35:01;;;;;;;4.8;1.9;;;;;;;;;;;;;
2019/06/13 18:37:31;;;;;;;7.4;2.1;;;;;;;;;;;;;
2019/06/13 18:39:58;;;;;;;7.9;1.9;;;;;;;;;;;;;
2019/06/13 18:42:26;;;;;;;4.8;2.1;;;;;;;;;;;;;
2019/06/13 18:44:49;;;;;;;4.3;2;;;;;;;;;;;;;
2019/06/13 18:47:23;;;;;;;6.1;2.3;;;;;;;;;;;;;
